Terminal Aerodrome Forecast
Issued by NWS Tallahassee, FL

Home | Current Version | Previous Version | Text Only | Print | Product List | Glossary On
Versions: 1 2 3 4 5 6 7 8 9 10 11 12 13 14 15 16 17 18 19 20 21 22
000
FTUS42 KTAE 291203 AAA
TAFTLH
TAF AMD
KTLH 291203Z 2912/3012 06003KT P6SM SCT006 SCT100
      TEMPO 2912/2914 OVC006
     FM291400 18008KT P6SM SCT035
     FM300000 20005KT P6SM SCT250
     FM300800 00000KT 3SM BR BKN006=

USA.gov is the U.S. government's official web portal to all federal, state and local government web resources and services.